Time;durP1;ratioP1;P1;durP2;ratioP2;P2;SDS_P1;SDS_P2;PMS_P1;PMS_P2;Temp;Humidity;BMP_temperature;BMP_pressure;BME280_temperature;BME280_humidity;BME280_pressure;Samples;Min_cycle;Max_cycle;Signal;HPM_P1;HPM_P2
2022/03/05 00:03:15;;;;;;;84.27;78.20;;;;;;;7.92;100.00;102184.02;1999502;71;33263;-76
2022/03/05 00:09:00;;;;;;;86.70;80.37;;;;;;;7.78;100.00;102191.69;2010141;71;32820;-76
2022/03/05 00:14:44;;;;;;;87.03;80.43;;;;;;;7.77;100.00;102189.14;2016355;71;32797;-76
2022/03/05 00:20:29;;;;;;;84.07;78.00;;;;;;;7.68;100.00;102185.02;2009337;71;33485;-76
2022/03/05 00:26:13;;;;;;;79.77;74.57;;;;;;;7.71;100.00;102198.36;1991374;71;33232;-77
2022/03/05 00:31:57;;;;;;;75.23;70.33;;;;;;;7.71;100.00;102192.83;2013138;71;32826;-76
2022/03/05 00:37:41;;;;;;;75.17;70.57;;;;;;;7.74;100.00;102198.73;2002811;71;32802;-83
2022/03/05 00:43:26;;;;;;;71.47;66.97;;;;;;;7.71;100.00;102199.21;2004392;70;32872;-78
2022/03/05 00:49:10;;;;;;;73.00;68.50;;;;;;;7.68;100.00;102191.92;2006524;71;32841;-80
2022/03/05 00:54:56;;;;;;;71.67;67.27;;;;;;;7.65;100.00;102194.63;2015353;71;33322;-80
2022/03/05 01:00:41;;;;;;;75.40;70.80;;;;;;;7.67;100.00;102191.61;2011080;71;33428;-77
2022/03/05 01:06:26;;;;;;;73.47;68.87;;;;;;;7.53;100.00;102199.23;2007766;71;32765;-76
2022/03/05 01:12:11;;;;;;;77.20;72.37;;;;;;;7.58;100.00;102201.30;2006066;71;33316;-76
2022/03/05 01:17:55;;;;;;;78.07;73.27;;;;;;;7.55;100.00;102209.54;1995152;71;32771;-76
2022/03/05 01:23:40;;;;;;;78.27;73.50;;;;;;;7.51;100.00;102210.23;2015196;71;32851;-81
2022/03/05 01:29:24;;;;;;;75.97;71.23;;;;;;;7.53;100.00;102215.00;1911948;73;33050;-80
2022/03/05 01:35:11;;;;;;;76.80;72.10;;;;;;;7.52;100.00;102210.55;2014867;71;32844;-76
2022/03/05 01:40:55;;;;;;;78.43;73.63;;;;;;;7.55;100.00;102214.22;2004178;71;32824;-76
2022/03/05 01:46:41;;;;;;;75.43;70.63;;;;;;;7.45;100.00;102216.14;2016344;71;33015;-77
2022/03/05 01:52:27;;;;;;;77.07;72.23;;;;;;;7.54;100.00;102214.75;2018245;71;32978;-75
2022/03/05 01:58:14;;;;;;;73.10;68.50;;;;;;;7.42;100.00;102212.47;1997549;71;32839;-75
2022/03/05 02:04:00;;;;;;;77.40;72.60;;;;;;;7.44;100.00;102210.86;2009481;71;32943;-82
2022/03/05 02:09:45;;;;;;;72.53;67.93;;;;;;;7.38;100.00;102215.92;1995485;71;32912;-76
2022/03/05 02:15:30;;;;;;;72.63;68.03;;;;;;;7.36;100.00;102213.94;2002114;71;32928;-76
2022/03/05 02:21:14;;;;;;;75.33;70.63;;;;;;;7.33;100.00;102213.84;2014571;71;32898;-76
2022/03/05 02:26:59;;;;;;;76.00;71.20;;;;;;;7.39;100.00;102219.00;2011189;71;33287;-75
2022/03/05 02:32:44;;;;;;;77.60;72.90;;;;;;;7.38;100.00;102219.53;2003625;71;33253;-76
2022/03/05 02:38:29;;;;;;;78.27;73.57;;;;;;;7.42;100.00;102219.91;2006036;71;32769;-77
2022/03/05 02:44:13;;;;;;;76.93;72.30;;;;;;;7.43;100.00;102220.22;2004683;71;32777;-75
2022/03/05 02:49:57;;;;;;;74.73;70.13;;;;;;;7.41;100.00;102218.21;2013120;71;33461;-76
2022/03/05 02:55:42;;;;;;;74.80;70.27;;;;;;;7.39;100.00;102219.00;2006573;70;32928;-75
2022/03/05 03:01:28;;;;;;;73.73;69.23;;;;;;;7.43;100.00;102223.84;2006362;71;32763;-79
2022/03/05 03:07:12;;;;;;;72.20;67.80;;;;;;;7.39;100.00;102219.00;2007768;71;32839;-76
2022/03/05 03:12:58;;;;;;;72.20;67.70;;;;;;;7.47;100.00;102220.06;1998550;71;32845;-74
2022/03/05 03:18:42;;;;;;;73.70;69.20;;;;;;;7.48;100.00;102221.23;2018373;71;32911;-74
2022/03/05 03:24:26;;;;;;;74.20;69.60;;;;;;;7.53;100.00;102221.92;1991204;71;32854;-75
2022/03/05 03:30:13;;;;;;;76.13;71.50;;;;;;;7.49;100.00;102228.42;1995053;71;32908;-76
2022/03/05 03:35:58;;;;;;;76.33;71.73;;;;;;;7.58;100.00;102231.19;2014809;71;32843;-76
2022/03/05 03:41:42;;;;;;;80.07;75.27;;;;;;;7.43;100.00;102225.22;2009414;71;32869;-75
2022/03/05 03:47:27;;;;;;;77.57;72.97;;;;;;;7.49;100.00;102234.48;2012857;71;33365;-75
2022/03/05 03:53:11;;;;;;;77.03;72.43;;;;;;;7.46;100.00;102221.98;2014737;71;32922;-76
2022/03/05 03:58:55;;;;;;;72.90;68.50;;;;;;;7.48;100.00;102225.38;2003826;71;33341;-76
2022/03/05 04:04:41;;;;;;;72.27;67.97;;;;;;;7.55;100.00;102226.66;1974921;70;33241;-82
2022/03/05 04:10:25;;;;;;;74.50;70.00;;;;;;;7.50;100.00;102227.35;2012050;71;33280;-79
2022/03/05 04:16:09;;;;;;;75.47;70.87;;;;;;;7.48;100.00;102225.91;2000639;71;32860;-76
2022/03/05 04:21:54;;;;;;;74.33;69.77;;;;;;;7.52;100.00;102221.07;2004239;71;32809;-76
2022/03/05 04:27:38;;;;;;;71.80;67.40;;;;;;;7.49;100.00;102227.58;2011663;71;33370;-79
2022/03/05 04:33:24;;;;;;;75.23;70.50;;;;;;;7.48;100.00;102229.52;1998420;71;32927;-76
2022/03/05 04:39:08;;;;;;;74.17;69.57;;;;;;;7.53;100.00;102234.36;1991654;71;32879;-75
2022/03/05 04:44:53;;;;;;;74.97;70.10;;;;;;;7.55;100.00;102233.58;2004223;71;32995;-79
2022/03/05 04:50:38;;;;;;;72.83;68.13;;;;;;;7.54;100.00;102234.64;2000450;71;32843;-75
2022/03/05 04:56:22;;;;;;;70.93;66.37;;;;;;;7.51;100.00;102229.59;2006031;71;33186;-76
2022/03/05 05:02:06;;;;;;;68.83;64.37;;;;;;;7.58;100.00;102248.31;1948610;70;39650;-79
2022/03/05 05:07:50;;;;;;;70.07;65.60;;;;;;;7.53;100.00;102242.66;2013397;70;32844;-76
2022/03/05 05:13:34;;;;;;;67.70;63.10;;;;;;;7.55;100.00;102248.78;2016484;71;32973;-75
2022/03/05 05:19:30;;;;;;;70.70;66.20;;;;;;;7.51;100.00;102241.48;2016483;71;32881;-76
2022/03/05 05:25:16;;;;;;;68.03;63.67;;;;;;;7.52;100.00;102243.19;1997205;71;32778;-80
2022/03/05 05:31:01;;;;;;;70.63;66.13;;;;;;;7.53;100.00;102251.77;2011990;71;32852;-81
2022/03/05 05:36:45;;;;;;;66.83;62.53;;;;;;;7.55;100.00;102260.69;2003983;71;32873;-75
2022/03/05 05:42:30;;;;;;;65.97;61.67;;;;;;;7.54;100.00;102265.06;2014631;71;32829;-77
2022/03/05 05:48:14;;;;;;;67.10;62.90;;;;;;;7.51;100.00;102260.00;2013368;71;32889;-81
2022/03/05 05:53:58;;;;;;;66.73;62.53;;;;;;;7.50;100.00;102261.91;2003888;71;32969;-78
2022/03/05 05:59:42;;;;;;;65.27;61.17;;;;;;;7.48;100.00;102272.38;2007807;71;32873;-74
2022/03/05 06:05:27;;;;;;;67.40;62.83;;;;;;;7.52;100.00;102277.75;2009530;71;32803;-76
2022/03/05 06:11:11;;;;;;;67.83;63.37;;;;;;;7.54;100.00;102284.41;2013394;71;33322;-75
2022/03/05 06:16:56;;;;;;;65.23;60.90;;;;;;;7.44;100.00;102291.03;2016442;71;32952;-76
2022/03/05 06:22:40;;;;;;;66.47;61.80;;;;;;;7.43;100.00;102292.95;2004607;71;32814;-77
2022/03/05 06:28:25;;;;;;;65.30;60.80;;;;;;;7.42;100.00;102293.17;2002428;71;33333;-81
2022/03/05 06:34:09;;;;;;;64.73;60.70;;;;;;;7.42;100.00;102289.88;2012935;71;33241;-76
2022/03/05 06:39:54;;;;;;;62.57;58.37;;;;;;;7.38;100.00;102290.55;2013074;71;32910;-78
2022/03/05 06:45:38;;;;;;;62.87;58.97;;;;;;;7.40;100.00;102298.09;1995491;71;32972;-77
2022/03/05 06:51:23;;;;;;;64.33;60.03;;;;;;;7.39;100.00;102300.55;2009383;71;32825;-77
2022/03/05 06:57:08;;;;;;;66.13;62.20;;;;;;;7.40;100.00;102307.77;2005945;71;32956;-75
2022/03/05 07:02:52;;;;;;;64.60;60.50;;;;;;;7.43;100.00;102309.53;2004528;71;33346;-76
2022/03/05 07:08:39;;;;;;;66.00;61.90;;;;;;;7.42;100.00;102313.91;2010895;71;32871;-78
2022/03/05 07:14:23;;;;;;;66.37;62.13;;;;;;;7.51;100.00;102327.20;2016630;71;33288;-75
2022/03/05 07:20:08;;;;;;;66.53;62.23;;;;;;;7.38;100.00;102327.88;2003751;71;32885;-76
2022/03/05 07:25:52;;;;;;;66.03;61.50;;;;;;;7.36;100.00;102338.33;1995278;71;33308;-83
2022/03/05 07:31:37;;;;;;;67.80;63.50;;;;;;;7.33;100.00;102347.38;2016475;71;32828;-75
2022/03/05 07:37:22;;;;;;;66.20;61.70;;;;;;;7.33;100.00;102341.84;2005740;71;33464;-77
2022/03/05 07:43:06;;;;;;;69.80;65.10;;;;;;;7.32;100.00;102347.59;2009336;71;33075;-76
2022/03/05 07:48:50;;;;;;;70.73;66.00;;;;;;;7.29;100.00;102357.72;1991311;71;32848;-75
2022/03/05 07:54:36;;;;;;;68.80;64.30;;;;;;;7.36;100.00;102368.73;2011308;71;33484;-82
2022/03/05 08:00:20;;;;;;;70.43;65.80;;;;;;;7.31;100.00;102372.18;1998894;71;32758;-82
2022/03/05 08:06:04;;;;;;;71.57;66.93;;;;;;;7.27;100.00;102370.94;2000955;71;32767;-76
2022/03/05 08:11:50;;;;;;;69.33;64.83;;;;;;;7.23;100.00;102377.43;2008066;71;33326;-79
2022/03/05 08:17:37;;;;;;;67.63;63.23;;;;;;;7.29;100.00;102385.37;2007917;70;32886;-79
2022/03/05 08:23:23;;;;;;;68.50;64.00;;;;;;;7.35;100.00;102383.09;2002556;71;32953;-84
2022/03/05 08:29:08;;;;;;;66.80;62.33;;;;;;;7.38;100.00;102384.55;2000642;71;33316;-80
2022/03/05 08:34:52;;;;;;;62.17;58.17;;;;;;;7.45;100.00;102386.70;2018238;71;32903;-74
2022/03/05 08:40:38;;;;;;;65.10;61.00;;;;;;;7.48;100.00;102377.97;2002272;71;32839;-78
2022/03/05 08:46:22;;;;;;;64.03;60.03;;;;;;;7.51;100.00;102381.66;2004188;70;33328;-84
2022/03/05 08:52:09;;;;;;;63.90;59.93;;;;;;;7.62;100.00;102387.80;1996790;71;32936;-74
2022/03/05 08:57:53;;;;;;;63.10;59.20;;;;;;;7.63;100.00;102390.36;2014746;71;32898;-73
2022/03/05 09:03:37;;;;;;;61.30;57.30;;;;;;;7.74;100.00;102388.77;2003932;71;33267;-74
2022/03/05 09:09:22;;;;;;;62.87;59.07;;;;;;;7.78;100.00;102392.77;2016558;71;33384;-77
2022/03/05 09:15:09;;;;;;;61.00;57.40;;;;;;;7.85;100.00;102390.77;2000417;71;32890;-75
2022/03/05 09:20:53;;;;;;;62.77;59.17;;;;;;;7.82;100.00;102389.84;2016304;71;32881;-72
2022/03/05 09:26:37;;;;;;;60.30;56.67;;;;;;;7.81;100.00;102393.69;2007352;71;32803;-73
2022/03/05 09:32:21;;;;;;;59.80;56.27;;;;;;;7.93;100.00;102398.76;2012888;71;33455;-75
2022/03/05 09:38:05;;;;;;;62.50;58.70;;;;;;;7.94;100.00;102407.91;1991666;71;33191;-73
2022/03/05 09:43:50;;;;;;;63.20;59.50;;;;;;;8.07;100.00;102403.61;2012731;71;32808;-73
2022/03/05 09:49:38;;;;;;;65.70;61.80;;;;;;;7.97;100.00;102406.05;2005313;71;32857;-72
2022/03/05 09:55:23;;;;;;;63.10;59.30;;;;;;;7.92;100.00;102405.89;2009162;71;32877;-72
2022/03/05 10:01:08;;;;;;;62.23;58.43;;;;;;;7.83;100.00;102397.62;2000103;71;32906;-75
2022/03/05 10:07:09;;;;;;;61.70;58.00;;;;;;;7.92;100.00;102403.98;1998391;71;32812;-74
2022/03/05 10:12:58;;;;;;;61.40;57.50;;;;;;;8.18;100.00;102412.52;2005709;71;32799;-75
2022/03/05 10:18:42;;;;;;;58.93;55.43;;;;;;;8.34;100.00;102406.41;2014543;71;32895;-74
2022/03/05 10:24:33;;;;;;;61.53;57.87;;;;;;;8.39;100.00;102412.60;2014922;71;32783;-76
2022/03/05 10:30:30;;;;;;;62.23;58.70;;;;;;;8.30;100.00;102416.22;2000057;71;33236;-73
2022/03/05 10:36:22;;;;;;;64.13;60.43;;;;;;;8.32;100.00;102426.55;2013018;71;32933;-78
2022/03/05 10:42:18;;;;;;;64.40;60.60;;;;;;;8.36;100.00;102423.61;1998783;71;33250;-76
2022/03/05 10:48:27;;;;;;;62.37;58.67;;;;;;;8.26;100.00;102427.98;1991415;71;33303;-74
2022/03/05 10:54:12;;;;;;;63.93;60.23;;;;;;;8.08;100.00;102435.75;2001813;71;32887;-80
2022/03/05 10:59:59;;;;;;;64.73;60.80;;;;;;;8.15;100.00;102446.20;2016590;71;33321;-74
2022/03/05 11:05:44;;;;;;;66.80;62.50;;;;;;;8.02;100.00;102445.81;2009381;71;33349;-77
2022/03/05 11:11:28;;;;;;;63.60;59.60;;;;;;;8.15;100.00;102445.66;2012936;71;32905;-77
2022/03/05 11:17:13;;;;;;;61.07;57.47;;;;;;;8.21;100.00;102439.75;2002307;71;32817;-74
2022/03/05 11:23:00;;;;;;;63.37;59.57;;;;;;;8.19;100.00;102443.28;1995045;71;32895;-76
2022/03/05 11:28:50;;;;;;;63.60;59.80;;;;;;;8.24;100.00;102443.44;2002460;71;32745;-76
2022/03/05 11:34:43;;;;;;;66.00;62.00;;;;;;;8.14;100.00;102445.34;1998214;71;32821;-73
2022/03/05 11:40:40;;;;;;;63.67;59.67;;;;;;;8.07;100.00;102448.73;1998292;71;32875;-75
2022/03/05 11:46:35;;;;;;;64.67;60.87;;;;;;;8.08;100.00;102455.98;2006551;71;33263;-78
2022/03/05 11:52:19;;;;;;;64.00;60.00;;;;;;;8.10;100.00;102463.49;2014951;71;33294;-74
2022/03/05 11:58:34;;;;;;;64.97;60.83;;;;;;;8.19;100.00;102462.66;1995321;71;32753;-79
2022/03/05 12:04:54;;;;;;;64.97;60.90;;;;;;;8.24;100.00;102451.20;2022576;71;32791;-76
2022/03/05 12:10:39;;;;;;;62.27;58.17;;;;;;;8.24;100.00;102443.44;2016397;71;32923;-74
2022/03/05 12:16:26;;;;;;;59.67;56.13;;;;;;;8.39;100.00;102441.67;1996910;71;32817;-74
2022/03/05 12:22:15;;;;;;;59.37;55.77;;;;;;;8.43;100.00;102436.01;2005816;71;33450;-79
2022/03/05 12:28:00;;;;;;;61.37;57.70;;;;;;;8.44;100.00;102433.52;2016512;71;32870;-76
2022/03/05 12:33:51;;;;;;;60.70;57.10;;;;;;;8.47;100.00;102432.52;1998655;71;32850;-79
2022/03/05 12:39:35;;;;;;;58.60;55.20;;;;;;;8.49;100.00;102433.67;2009780;71;32836;-74
2022/03/05 12:45:24;;;;;;;56.73;53.63;;;;;;;8.66;100.00;102426.41;2000726;71;32845;-77
2022/03/05 12:51:09;;;;;;;57.93;54.87;;;;;;;8.62;100.00;102423.81;2011370;71;33286;-73
2022/03/05 12:56:56;;;;;;;60.70;57.40;;;;;;;8.47;100.00;102429.74;2002096;71;32806;-73
2022/03/05 13:02:40;;;;;;;60.83;57.43;;;;;;;8.67;100.00;102425.34;2014560;71;32950;-74
2022/03/05 13:08:30;;;;;;;62.87;59.07;;;;;;;8.45;100.00;102441.61;2016535;70;32875;-77
2022/03/05 13:14:24;;;;;;;61.83;57.97;;;;;;;8.39;100.00;102443.06;2012994;71;32875;-77
2022/03/05 13:20:10;;;;;;;61.77;57.90;;;;;;;8.39;100.00;102437.52;2013148;71;33267;-73
2022/03/05 13:25:55;;;;;;;63.13;59.33;;;;;;;8.48;100.00;102427.29;2006203;71;33332;-73
2022/03/05 13:31:41;;;;;;;60.57;56.87;;;;;;;8.44;100.00;102425.22;2008043;71;32799;-77
2022/03/05 13:37:38;;;;;;;61.93;58.33;;;;;;;8.41;100.00;102428.45;1998439;71;33373;-74
2022/03/05 13:43:25;;;;;;;63.10;59.23;;;;;;;8.38;100.00;102428.39;2013114;71;33339;-73
2022/03/05 13:49:13;;;;;;;58.83;55.23;;;;;;;8.48;100.00;102426.44;2014698;71;32855;-73
2022/03/05 13:55:10;;;;;;;59.80;56.20;;;;;;;8.56;100.00;102426.96;2000003;71;33428;-74
2022/03/05 14:00:54;;;;;;;62.13;58.50;;;;;;;8.55;100.00;102421.67;2014727;71;33279;-73
2022/03/05 14:10:22;;;;;;;65.70;61.80;;;;;;;8.55;100.00;102407.30;2018364;71;33297;-77
2022/03/05 14:16:07;;;;;;;66.33;62.43;;;;;;;8.42;100.00;102405.23;2014894;71;32804;-77
2022/03/05 14:22:11;;;;;;;63.97;59.77;;;;;;;8.64;100.00;102406.43;2016573;71;32912;-78
2022/03/05 14:27:58;;;;;;;65.63;61.63;;;;;;;8.63;100.00;102400.04;2009069;71;33283;-74
2022/03/05 14:33:44;;;;;;;63.40;59.60;;;;;;;8.63;100.00;102409.73;2014570;71;32828;-74
2022/03/05 14:39:28;;;;;;;64.60;60.60;;;;;;;8.49;100.00;102404.06;1994602;71;32858;-77
2022/03/05 14:45:15;;;;;;;63.27;59.60;;;;;;;8.54;100.00;102404.75;2014878;71;32829;-76
2022/03/05 14:51:00;;;;;;;60.53;56.83;;;;;;;8.53;100.00;102403.05;2007556;71;32856;-77
2022/03/05 14:56:44;;;;;;;64.60;60.40;;;;;;;8.50;100.00;102395.22;2006058;71;32857;-77
2022/03/05 15:02:28;;;;;;;61.93;57.90;;;;;;;8.41;100.00;102407.69;2009577;71;32743;-77
2022/03/05 15:08:12;;;;;;;64.73;60.63;;;;;;;8.36;100.00;102404.77;2005699;71;33267;-75
2022/03/05 15:13:58;;;;;;;62.57;58.37;;;;;;;8.47;100.00;102404.81;2014800;71;33259;-74
2022/03/05 15:19:44;;;;;;;69.80;65.20;;;;;;;8.54;100.00;102408.91;2016390;71;32868;-74
2022/03/05 15:25:28;;;;;;;69.37;64.67;;;;;;;8.48;100.00;102411.20;2004434;71;33373;-77
2022/03/05 15:31:13;;;;;;;72.27;67.73;;;;;;;8.39;100.00;102410.68;2000671;71;33223;-73
2022/03/05 15:36:57;;;;;;;72.17;67.30;;;;;;;8.26;100.00;102422.45;2016416;71;32872;-73
2022/03/05 15:42:41;;;;;;;70.30;65.67;;;;;;;8.17;100.00;102418.58;2006207;71;33377;-74
2022/03/05 15:48:26;;;;;;;67.07;62.77;;;;;;;8.16;100.00;102414.15;2000603;71;33220;-77
2022/03/05 15:54:11;;;;;;;64.33;60.07;;;;;;;8.26;100.00;102418.30;2013187;71;32845;-78
2022/03/05 15:59:55;;;;;;;66.00;61.83;;;;;;;8.30;100.00;102409.87;2000983;71;32823;-77
2022/03/05 16:05:40;;;;;;;61.13;57.43;;;;;;;8.30;100.00;102414.84;2002363;71;32725;-76
2022/03/05 16:11:24;;;;;;;66.50;62.33;;;;;;;8.34;100.00;102415.25;2000529;71;32746;-73
2022/03/05 16:17:08;;;;;;;64.93;61.03;;;;;;;8.32;100.00;102414.62;2009292;71;32886;-78
2022/03/05 16:22:53;;;;;;;64.60;60.73;;;;;;;8.19;100.00;102412.29;2015049;71;32842;-78
2022/03/05 16:28:37;;;;;;;66.17;61.93;;;;;;;8.19;100.00;102409.52;2011572;71;32872;-76
2022/03/05 16:34:24;;;;;;;66.97;62.97;;;;;;;8.24;100.00;102413.84;2011773;70;32816;-77
2022/03/05 16:40:12;;;;;;;68.83;64.63;;;;;;;8.24;100.00;102407.45;1991381;71;32818;-73
2022/03/05 16:45:57;;;;;;;62.33;58.43;;;;;;;8.22;100.00;102415.12;2000583;71;32800;-74
2022/03/05 16:51:42;;;;;;;68.03;63.60;;;;;;;8.12;100.00;102410.16;2018183;71;32816;-77
2022/03/05 16:57:26;;;;;;;68.80;64.20;;;;;;;8.08;100.00;102415.00;2005478;71;33353;-75
2022/03/05 17:03:10;;;;;;;67.27;62.80;;;;;;;7.98;100.00;102414.67;2005442;71;33368;-78
2022/03/05 17:08:55;;;;;;;68.93;64.13;;;;;;;7.97;100.00;102413.83;2003918;71;32983;-77
2022/03/05 17:14:39;;;;;;;72.07;66.97;;;;;;;7.95;100.00;102427.59;2011571;71;32847;-76
2022/03/05 17:20:24;;;;;;;73.13;67.93;;;;;;;7.68;100.00;102424.24;2014554;71;33338;-74
2022/03/05 17:26:09;;;;;;;70.27;65.07;;;;;;;7.66;100.00;102433.29;2018384;71;32830;-76
2022/03/05 17:31:53;;;;;;;72.70;67.50;;;;;;;7.59;100.00;102422.84;1998729;71;32776;-74
2022/03/05 17:37:37;;;;;;;68.97;63.97;;;;;;;7.59;100.00;102417.31;2000125;70;32835;-74
2022/03/05 17:43:24;;;;;;;71.10;66.00;;;;;;;7.54;100.00;102428.20;1991526;71;33243;-74
2022/03/05 17:49:08;;;;;;;72.57;67.43;;;;;;;7.41;100.00;102425.02;2011562;71;33234;-74
2022/03/05 17:54:52;;;;;;;70.67;65.20;;;;;;;7.46;100.00;102426.58;1998352;70;32953;-77
2022/03/05 18:00:40;;;;;;;70.83;65.43;;;;;;;7.38;100.00;102428.77;2004226;71;32774;-77
2022/03/05 18:06:24;;;;;;;66.97;61.73;;;;;;;7.40;100.00;102430.79;1996924;71;32874;-76
2022/03/05 18:12:09;;;;;;;69.90;64.30;;;;;;;7.37;100.00;102433.98;2007441;71;33281;-74
2022/03/05 18:17:54;;;;;;;68.90;63.80;;;;;;;7.44;100.00;102437.03;1998666;71;32838;-74
2022/03/05 18:23:38;;;;;;;65.13;60.33;;;;;;;7.44;100.00;102446.70;2014847;71;32905;-76
2022/03/05 18:29:22;;;;;;;69.10;64.00;;;;;;;7.42;100.00;102443.30;1998463;71;33307;-74
2022/03/05 18:35:09;;;;;;;68.87;63.87;;;;;;;7.36;100.00;102440.61;2007526;71;32817;-76
2022/03/05 18:40:53;;;;;;;74.30;68.93;;;;;;;7.39;100.00;102439.63;2002355;71;33003;-74
2022/03/05 18:46:38;;;;;;;69.93;64.93;;;;;;;7.28;100.00;102442.56;2017062;71;32837;-78
2022/03/05 18:52:22;;;;;;;71.70;66.50;;;;;;;7.38;100.00;102453.66;2003938;71;32830;-76
2022/03/05 18:58:07;;;;;;;72.67;67.10;;;;;;;7.37;100.00;102451.42;2013336;71;33321;-76
2022/03/05 19:03:52;;;;;;;74.60;69.10;;;;;;;7.29;100.00;102457.23;2008065;71;32774;-79
2022/03/05 19:09:36;;;;;;;79.40;73.83;;;;;;;7.34;100.00;102464.32;2011635;71;32812;-73
2022/03/05 19:15:22;;;;;;;73.20;68.00;;;;;;;7.33;100.00;102463.47;2003793;71;32905;-76
2022/03/05 19:21:06;;;;;;;73.97;68.57;;;;;;;7.42;100.00;102465.42;1991404;71;33358;-74
2022/03/05 19:26:49;;;;;;;70.33;64.83;;;;;;;7.33;100.00;102480.59;1996704;71;32776;-75
2022/03/05 19:32:34;;;;;;;70.43;64.90;;;;;;;7.32;100.00;102478.35;2015011;71;32829;-74
2022/03/05 19:38:19;;;;;;;68.13;62.93;;;;;;;7.31;100.00;102489.66;2009671;71;32856;-75
2022/03/05 19:44:04;;;;;;;74.20;68.20;;;;;;;7.25;100.00;102498.83;2009883;71;33441;-76
2022/03/05 19:49:48;;;;;;;114.43;103.23;;;;;;;6.87;100.00;102526.47;2018549;71;32824;-76
2022/03/05 19:55:33;;;;;;;114.80;103.90;;;;;;;6.71;100.00;102525.59;2014699;71;32865;-77
2022/03/05 20:01:17;;;;;;;115.83;105.37;;;;;;;6.64;100.00;102535.27;2001948;71;32867;-75
2022/03/05 20:07:01;;;;;;;112.23;101.57;;;;;;;6.73;100.00;102549.68;2003772;71;32873;-74
2022/03/05 20:12:46;;;;;;;107.23;97.40;;;;;;;6.91;100.00;102560.02;2011119;71;32981;-74
2022/03/05 20:18:30;;;;;;;109.77;99.97;;;;;;;6.86;100.00;102561.53;2009217;71;32866;-76
2022/03/05 20:24:15;;;;;;;110.20;100.43;;;;;;;6.77;100.00;102564.22;2014946;71;33329;-77
2022/03/05 20:29:59;;;;;;;110.10;100.50;;;;;;;6.79;100.00;102575.06;1998412;70;33314;-74
2022/03/05 20:35:44;;;;;;;108.03;98.40;;;;;;;6.83;100.00;102577.17;2016593;71;33318;-76
2022/03/05 20:41:29;;;;;;;107.40;97.90;;;;;;;6.82;100.00;102592.03;1995161;71;32844;-77
2022/03/05 20:47:13;;;;;;;104.93;95.10;;;;;;;6.83;100.00;102602.03;1991389;71;32910;-73
2022/03/05 20:52:57;;;;;;;105.47;96.17;;;;;;;6.79;100.00;102602.68;2000669;71;33303;-77
2022/03/05 20:58:41;;;;;;;105.67;96.57;;;;;;;6.65;100.00;102611.53;2018251;71;32831;-77
2022/03/05 21:04:26;;;;;;;105.93;96.53;;;;;;;6.57;100.00;102624.72;1998595;71;32877;-78
2022/03/05 21:10:11;;;;;;;110.20;100.13;;;;;;;6.56;100.00;102636.81;1994734;71;32817;-74
2022/03/05 21:15:55;;;;;;;113.47;102.97;;;;;;;6.57;100.00;102641.28;1998487;71;32967;-78
2022/03/05 21:21:40;;;;;;;112.47;102.40;;;;;;;6.54;100.00;102650.86;2005533;71;32830;-72
2022/03/05 21:27:24;;;;;;;114.43;103.83;;;;;;;6.60;100.00;102668.45;2012991;71;32903;-77
2022/03/05 21:33:08;;;;;;;120.27;109.33;;;;;;;6.58;100.00;102665.08;2004361;71;32885;-75
2022/03/05 21:38:55;;;;;;;122.17;111.20;;;;;;;6.57;100.00;102670.27;2016663;71;32940;-74
2022/03/05 21:44:40;;;;;;;117.97;107.33;;;;;;;6.63;100.00;102670.25;2016402;71;33259;-71
2022/03/05 21:50:24;;;;;;;116.23;105.37;;;;;;;6.49;100.00;102676.88;1998921;71;32833;-74
2022/03/05 21:56:09;;;;;;;117.17;106.40;;;;;;;6.53;100.00;102675.91;2004238;71;32895;-72
2022/03/05 22:01:53;;;;;;;114.50;104.40;;;;;;;6.49;100.00;102687.06;2007297;71;32917;-78
2022/03/05 22:07:38;;;;;;;105.20;96.23;;;;;;;6.47;100.00;102685.03;2013112;71;33337;-77
2022/03/05 22:13:23;;;;;;;95.47;87.97;;;;;;;6.44;100.00;102689.61;1997695;71;33284;-76
2022/03/05 22:19:08;;;;;;;92.93;85.63;;;;;;;6.23;100.00;102695.67;2007511;71;32822;-79
2022/03/05 22:24:52;;;;;;;89.07;82.10;;;;;;;6.16;100.00;102693.41;2014865;71;32809;-78
2022/03/05 22:30:39;;;;;;;88.07;81.10;;;;;;;6.12;100.00;102698.21;2015327;71;32981;-79
2022/03/05 22:36:25;;;;;;;86.03;79.27;;;;;;;6.07;100.00;102700.22;2004808;71;32900;-84
2022/03/05 22:42:10;;;;;;;87.63;80.63;;;;;;;5.93;100.00;102703.48;2005435;71;33078;-76
2022/03/05 22:47:55;;;;;;;89.27;82.07;;;;;;;5.89;100.00;102705.48;1991887;71;32843;-76
2022/03/05 22:53:40;;;;;;;87.43;80.33;;;;;;;5.91;100.00;102715.23;2016707;71;32861;-78
2022/03/05 22:59:24;;;;;;;88.63;81.33;;;;;;;5.90;100.00;102716.30;2013319;71;32856;-85
2022/03/05 23:05:09;;;;;;;90.20;82.77;;;;;;;5.89;100.00;102713.23;1960764;72;32896;-79
2022/03/05 23:10:53;;;;;;;85.43;78.70;;;;;;;6.00;100.00;102713.14;2002287;71;32902;-76
2022/03/05 23:16:38;;;;;;;83.83;77.33;;;;;;;5.98;100.00;102718.55;2009221;71;32877;-76
2022/03/05 23:22:23;;;;;;;85.10;78.43;;;;;;;6.04;100.00;102719.93;1996892;71;32751;-78
2022/03/05 23:28:07;;;;;;;86.77;80.03;;;;;;;5.89;100.00;102723.41;2009744;71;33230;-78
2022/03/05 23:33:52;;;;;;;86.27;79.70;;;;;;;5.90;100.00;102720.98;2009057;71;32881;-78
2022/03/05 23:39:38;;;;;;;84.97;78.50;;;;;;;5.91;100.00;102728.17;2011434;71;32886;-75
2022/03/05 23:45:23;;;;;;;84.03;77.67;;;;;;;5.93;100.00;102734.34;1996816;70;32800;-76
2022/03/05 23:51:07;;;;;;;81.47;74.97;;;;;;;5.95;100.00;102728.93;2006362;71;32881;-76
2022/03/05 23:56:52;;;;;;;82.77;76.43;;;;;;;5.94;100.00;102738.81;2011427;71;33387;-79
